sensor_id;sensor_type;location;lat;lon;timestamp;P1;durP1;ratioP1;P2;durP2;ratioP2
55758;SDS011;41678;52.126;20.664;2022-07-23T00:01:24;20.60;;;11.90;;
55758;SDS011;41678;52.126;20.664;2022-07-23T00:06:43;25.92;;;11.93;;
55758;SDS011;41678;52.126;20.664;2022-07-23T00:12:03;21.67;;;11.55;;
55758;SDS011;41678;52.126;20.664;2022-07-23T00:17:22;19.05;;;11.50;;
55758;SDS011;41678;52.126;20.664;2022-07-23T00:22:52;20.38;;;11.45;;
55758;SDS011;41678;52.126;20.664;2022-07-23T00:33:32;21.85;;;11.30;;
55758;SDS011;41678;52.126;20.664;2022-07-23T00:38:53;19.23;;;11.60;;
55758;SDS011;41678;52.126;20.664;2022-07-23T00:44:22;26.60;;;12.32;;
55758;SDS011;41678;52.126;20.664;2022-07-23T00:49:44;24.65;;;11.93;;
55758;SDS011;41678;52.126;20.664;2022-07-23T00:55:04;23.45;;;12.80;;
55758;SDS011;41678;52.126;20.664;2022-07-23T01:00:25;21.55;;;12.52;;
55758;SDS011;41678;52.126;20.664;2022-07-23T01:05:44;24.88;;;12.63;;
55758;SDS011;41678;52.126;20.664;2022-07-23T01:11:04;21.27;;;11.90;;
55758;SDS011;41678;52.126;20.664;2022-07-23T01:16:25;23.02;;;12.20;;
55758;SDS011;41678;52.126;20.664;2022-07-23T01:21:46;22.73;;;12.20;;
55758;SDS011;41678;52.126;20.664;2022-07-23T01:27:07;27.77;;;13.00;;
55758;SDS011;41678;52.126;20.664;2022-07-23T01:32:29;20.27;;;12.60;;
55758;SDS011;41678;52.126;20.664;2022-07-23T01:37:49;22.35;;;11.95;;
55758;SDS011;41678;52.126;20.664;2022-07-23T01:43:10;20.35;;;11.98;;
55758;SDS011;41678;52.126;20.664;2022-07-23T01:48:30;20.13;;;12.10;;
55758;SDS011;41678;52.126;20.664;2022-07-23T01:54:08;34.20;;;13.32;;
55758;SDS011;41678;52.126;20.664;2022-07-23T01:59:28;22.92;;;11.43;;
55758;SDS011;41678;52.126;20.664;2022-07-23T02:04:49;26.50;;;11.35;;
55758;SDS011;41678;52.126;20.664;2022-07-23T02:10:10;19.50;;;9.85;;
55758;SDS011;41678;52.126;20.664;2022-07-23T02:15:31;19.60;;;11.37;;
55758;SDS011;41678;52.126;20.664;2022-07-23T02:20:51;22.30;;;10.90;;
55758;SDS011;41678;52.126;20.664;2022-07-23T02:26:11;29.60;;;10.88;;
55758;SDS011;41678;52.126;20.664;2022-07-23T02:31:31;19.90;;;10.88;;
55758;SDS011;41678;52.126;20.664;2022-07-23T02:36:52;20.73;;;11.93;;
55758;SDS011;41678;52.126;20.664;2022-07-23T02:42:11;23.23;;;11.25;;
55758;SDS011;41678;52.126;20.664;2022-07-23T02:47:31;16.58;;;11.18;;
55758;SDS011;41678;52.126;20.664;2022-07-23T02:52:53;17.80;;;10.45;;
55758;SDS011;41678;52.126;20.664;2022-07-23T02:58:14;21.25;;;12.23;;
55758;SDS011;41678;52.126;20.664;2022-07-23T03:03:34;20.02;;;11.55;;
55758;SDS011;41678;52.126;20.664;2022-07-23T03:08:54;18.30;;;10.88;;
55758;SDS011;41678;52.126;20.664;2022-07-23T03:14:14;24.07;;;10.93;;
55758;SDS011;41678;52.126;20.664;2022-07-23T03:19:35;18.17;;;11.20;;
55758;SDS011;41678;52.126;20.664;2022-07-23T03:24:56;18.67;;;11.13;;
55758;SDS011;41678;52.126;20.664;2022-07-23T03:30:18;20.80;;;12.32;;
55758;SDS011;41678;52.126;20.664;2022-07-23T03:35:38;22.90;;;11.90;;
55758;SDS011;41678;52.126;20.664;2022-07-23T03:41:24;17.48;;;11.05;;
55758;SDS011;41678;52.126;20.664;2022-07-23T03:46:43;23.30;;;12.57;;
55758;SDS011;41678;52.126;20.664;2022-07-23T03:52:04;17.75;;;11.32;;
55758;SDS011;41678;52.126;20.664;2022-07-23T03:57:24;19.33;;;11.47;;
55758;SDS011;41678;52.126;20.664;2022-07-23T04:02:44;24.85;;;11.63;;
55758;SDS011;41678;52.126;20.664;2022-07-23T04:08:05;20.35;;;11.52;;
55758;SDS011;41678;52.126;20.664;2022-07-23T04:13:26;25.80;;;12.13;;
55758;SDS011;41678;52.126;20.664;2022-07-23T04:18:46;20.05;;;11.68;;
55758;SDS011;41678;52.126;20.664;2022-07-23T04:24:09;21.23;;;11.32;;
55758;SDS011;41678;52.126;20.664;2022-07-23T04:29:29;21.05;;;10.65;;
55758;SDS011;41678;52.126;20.664;2022-07-23T04:34:49;19.23;;;12.07;;
55758;SDS011;41678;52.126;20.664;2022-07-23T04:40:10;20.40;;;11.30;;
55758;SDS011;41678;52.126;20.664;2022-07-23T04:45:31;25.00;;;11.57;;
55758;SDS011;41678;52.126;20.664;2022-07-23T04:50:51;19.40;;;11.77;;
55758;SDS011;41678;52.126;20.664;2022-07-23T04:56:15;21.15;;;12.23;;
55758;SDS011;41678;52.126;20.664;2022-07-23T05:01:35;17.00;;;11.47;;
55758;SDS011;41678;52.126;20.664;2022-07-23T05:06:55;17.63;;;11.60;;
55758;SDS011;41678;52.126;20.664;2022-07-23T05:12:15;17.83;;;11.02;;
55758;SDS011;41678;52.126;20.664;2022-07-23T05:17:36;20.50;;;11.57;;
55758;SDS011;41678;52.126;20.664;2022-07-23T05:23:01;19.58;;;12.02;;
55758;SDS011;41678;52.126;20.664;2022-07-23T05:28:22;16.37;;;10.87;;
55758;SDS011;41678;52.126;20.664;2022-07-23T05:33:42;17.02;;;10.40;;
55758;SDS011;41678;52.126;20.664;2022-07-23T05:39:02;22.17;;;11.63;;
55758;SDS011;41678;52.126;20.664;2022-07-23T05:44:26;19.52;;;11.73;;
55758;SDS011;41678;52.126;20.664;2022-07-23T05:49:46;20.37;;;12.57;;
55758;SDS011;41678;52.126;20.664;2022-07-23T05:55:18;18.20;;;11.18;;
55758;SDS011;41678;52.126;20.664;2022-07-23T06:00:38;17.98;;;10.50;;
55758;SDS011;41678;52.126;20.664;2022-07-23T06:05:58;16.17;;;10.95;;
55758;SDS011;41678;52.126;20.664;2022-07-23T06:11:17;18.23;;;10.75;;
55758;SDS011;41678;52.126;20.664;2022-07-23T06:16:37;18.92;;;10.15;;
55758;SDS011;41678;52.126;20.664;2022-07-23T06:21:57;20.55;;;10.40;;
55758;SDS011;41678;52.126;20.664;2022-07-23T06:27:17;17.77;;;10.02;;
55758;SDS011;41678;52.126;20.664;2022-07-23T06:32:37;17.27;;;9.23;;
55758;SDS011;41678;52.126;20.664;2022-07-23T06:37:57;14.98;;;9.43;;
55758;SDS011;41678;52.126;20.664;2022-07-23T06:43:17;20.10;;;9.63;;
55758;SDS011;41678;52.126;20.664;2022-07-23T06:48:38;15.30;;;8.38;;
55758;SDS011;41678;52.126;20.664;2022-07-23T06:53:57;18.60;;;9.23;;
55758;SDS011;41678;52.126;20.664;2022-07-23T06:59:19;15.20;;;8.77;;
55758;SDS011;41678;52.126;20.664;2022-07-23T07:04:38;13.40;;;7.47;;
55758;SDS011;41678;52.126;20.664;2022-07-23T07:09:58;15.18;;;7.63;;
55758;SDS011;41678;52.126;20.664;2022-07-23T07:15:17;17.20;;;8.00;;
55758;SDS011;41678;52.126;20.664;2022-07-23T07:20:37;14.82;;;8.55;;
55758;SDS011;41678;52.126;20.664;2022-07-23T07:25:56;13.95;;;8.02;;
55758;SDS011;41678;52.126;20.664;2022-07-23T07:31:17;16.80;;;7.57;;
55758;SDS011;41678;52.126;20.664;2022-07-23T07:36:36;11.43;;;6.63;;
55758;SDS011;41678;52.126;20.664;2022-07-23T07:41:56;12.93;;;7.70;;
55758;SDS011;41678;52.126;20.664;2022-07-23T07:47:16;14.32;;;6.80;;
55758;SDS011;41678;52.126;20.664;2022-07-23T07:52:36;11.90;;;6.40;;
55758;SDS011;41678;52.126;20.664;2022-07-23T07:57:56;11.40;;;7.78;;
55758;SDS011;41678;52.126;20.664;2022-07-23T08:03:17;13.77;;;7.32;;
55758;SDS011;41678;52.126;20.664;2022-07-23T08:08:36;13.38;;;7.15;;
55758;SDS011;41678;52.126;20.664;2022-07-23T08:13:56;12.03;;;6.00;;
55758;SDS011;41678;52.126;20.664;2022-07-23T08:19:17;14.93;;;7.30;;
55758;SDS011;41678;52.126;20.664;2022-07-23T08:24:37;12.55;;;7.13;;
55758;SDS011;41678;52.126;20.664;2022-07-23T08:29:56;15.95;;;6.97;;
55758;SDS011;41678;52.126;20.664;2022-07-23T08:35:16;13.00;;;6.82;;
55758;SDS011;41678;52.126;20.664;2022-07-23T08:40:38;11.70;;;6.75;;
55758;SDS011;41678;52.126;20.664;2022-07-23T08:46:00;10.70;;;6.30;;
55758;SDS011;41678;52.126;20.664;2022-07-23T08:51:21;10.88;;;7.15;;
55758;SDS011;41678;52.126;20.664;2022-07-23T08:56:44;9.15;;;6.00;;
55758;SDS011;41678;52.126;20.664;2022-07-23T09:02:04;9.93;;;5.97;;
55758;SDS011;41678;52.126;20.664;2022-07-23T09:07:24;13.95;;;6.45;;
55758;SDS011;41678;52.126;20.664;2022-07-23T09:12:43;11.50;;;6.80;;
55758;SDS011;41678;52.126;20.664;2022-07-23T09:18:03;10.97;;;5.77;;
55758;SDS011;41678;52.126;20.664;2022-07-23T09:23:35;11.93;;;5.80;;
55758;SDS011;41678;52.126;20.664;2022-07-23T09:34:30;12.18;;;5.70;;
55758;SDS011;41678;52.126;20.664;2022-07-23T09:40:02;12.75;;;6.00;;
55758;SDS011;41678;52.126;20.664;2022-07-23T09:45:23;13.98;;;5.63;;
55758;SDS011;41678;52.126;20.664;2022-07-23T09:50:43;10.95;;;5.60;;
55758;SDS011;41678;52.126;20.664;2022-07-23T10:01:24;10.50;;;5.50;;
55758;SDS011;41678;52.126;20.664;2022-07-23T10:06:46;9.68;;;5.18;;
55758;SDS011;41678;52.126;20.664;2022-07-23T10:12:25;8.95;;;5.25;;
55758;SDS011;41678;52.126;20.664;2022-07-23T10:18:10;12.50;;;4.70;;
55758;SDS011;41678;52.126;20.664;2022-07-23T10:23:40;9.38;;;5.38;;
55758;SDS011;41678;52.126;20.664;2022-07-23T10:29:24;12.85;;;4.90;;
55758;SDS011;41678;52.126;20.664;2022-07-23T10:35:15;8.18;;;5.35;;
55758;SDS011;41678;52.126;20.664;2022-07-23T10:40:37;11.05;;;6.15;;
55758;SDS011;41678;52.126;20.664;2022-07-23T10:46:24;12.48;;;5.80;;
55758;SDS011;41678;52.126;20.664;2022-07-23T10:57:32;8.05;;;4.90;;
55758;SDS011;41678;52.126;20.664;2022-07-23T11:15:06;11.15;;;5.78;;
55758;SDS011;41678;52.126;20.664;2022-07-23T11:20:32;13.23;;;6.03;;
55758;SDS011;41678;52.126;20.664;2022-07-23T11:25:52;9.80;;;5.90;;
55758;SDS011;41678;52.126;20.664;2022-07-23T11:31:18;17.23;;;6.70;;
55758;SDS011;41678;52.126;20.664;2022-07-23T11:36:50;12.63;;;6.00;;
55758;SDS011;41678;52.126;20.664;2022-07-23T11:42:10;9.38;;;5.95;;
55758;SDS011;41678;52.126;20.664;2022-07-23T11:47:37;9.30;;;5.60;;
55758;SDS011;41678;52.126;20.664;2022-07-23T11:52:57;13.13;;;6.20;;
55758;SDS011;41678;52.126;20.664;2022-07-23T11:58:16;9.18;;;5.78;;
55758;SDS011;41678;52.126;20.664;2022-07-23T12:03:36;10.20;;;5.85;;
55758;SDS011;41678;52.126;20.664;2022-07-23T12:09:06;15.77;;;5.60;;
55758;SDS011;41678;52.126;20.664;2022-07-23T12:14:26;10.98;;;6.47;;
55758;SDS011;41678;52.126;20.664;2022-07-23T12:19:46;9.50;;;6.22;;
55758;SDS011;41678;52.126;20.664;2022-07-23T12:25:12;13.68;;;6.55;;
55758;SDS011;41678;52.126;20.664;2022-07-23T12:30:43;13.88;;;6.25;;
55758;SDS011;41678;52.126;20.664;2022-07-23T12:36:06;13.57;;;6.70;;
55758;SDS011;41678;52.126;20.664;2022-07-23T12:41:27;9.10;;;6.20;;
55758;SDS011;41678;52.126;20.664;2022-07-23T12:46:51;10.60;;;6.47;;
55758;SDS011;41678;52.126;20.664;2022-07-23T12:52:15;9.98;;;5.97;;
55758;SDS011;41678;52.126;20.664;2022-07-23T12:57:44;12.15;;;6.93;;
55758;SDS011;41678;52.126;20.664;2022-07-23T13:03:04;11.30;;;6.38;;
55758;SDS011;41678;52.126;20.664;2022-07-23T13:08:25;15.68;;;6.53;;
55758;SDS011;41678;52.126;20.664;2022-07-23T13:13:46;11.25;;;6.25;;
55758;SDS011;41678;52.126;20.664;2022-07-23T13:19:06;15.65;;;6.75;;
55758;SDS011;41678;52.126;20.664;2022-07-23T13:24:26;11.20;;;6.60;;
55758;SDS011;41678;52.126;20.664;2022-07-23T13:29:46;11.77;;;5.95;;
55758;SDS011;41678;52.126;20.664;2022-07-23T13:35:06;15.52;;;6.25;;
55758;SDS011;41678;52.126;20.664;2022-07-23T13:40:26;10.80;;;6.97;;
55758;SDS011;41678;52.126;20.664;2022-07-23T13:45:46;10.23;;;5.72;;
55758;SDS011;41678;52.126;20.664;2022-07-23T13:51:07;13.90;;;6.30;;
55758;SDS011;41678;52.126;20.664;2022-07-23T13:56:26;11.15;;;6.38;;
55758;SDS011;41678;52.126;20.664;2022-07-23T14:01:46;18.10;;;7.05;;
55758;SDS011;41678;52.126;20.664;2022-07-23T14:07:06;12.13;;;6.65;;
55758;SDS011;41678;52.126;20.664;2022-07-23T14:12:26;9.48;;;5.90;;
55758;SDS011;41678;52.126;20.664;2022-07-23T14:17:46;29.65;;;3.53;;
55758;SDS011;41678;52.126;20.664;2022-07-23T14:23:05;38.72;;;3.50;;
55758;SDS011;41678;52.126;20.664;2022-07-23T14:28:26;11.93;;;4.03;;
55758;SDS011;41678;52.126;20.664;2022-07-23T14:33:46;10.70;;;4.60;;
55758;SDS011;41678;52.126;20.664;2022-07-23T14:39:06;8.30;;;4.20;;
55758;SDS011;41678;52.126;20.664;2022-07-23T14:44:27;7.90;;;4.03;;
55758;SDS011;41678;52.126;20.664;2022-07-23T14:49:47;10.43;;;4.70;;
55758;SDS011;41678;52.126;20.664;2022-07-23T14:55:07;10.48;;;5.70;;
55758;SDS011;41678;52.126;20.664;2022-07-23T15:00:27;13.67;;;6.10;;
55758;SDS011;41678;52.126;20.664;2022-07-23T15:05:47;16.67;;;5.80;;
55758;SDS011;41678;52.126;20.664;2022-07-23T15:11:07;14.43;;;7.17;;
55758;SDS011;41678;52.126;20.664;2022-07-23T15:16:28;16.33;;;6.10;;
55758;SDS011;41678;52.126;20.664;2022-07-23T15:21:48;15.80;;;7.00;;
55758;SDS011;41678;52.126;20.664;2022-07-23T15:27:08;11.17;;;6.10;;
55758;SDS011;41678;52.126;20.664;2022-07-23T15:32:28;10.90;;;6.50;;
55758;SDS011;41678;52.126;20.664;2022-07-23T15:37:47;11.38;;;6.70;;
55758;SDS011;41678;52.126;20.664;2022-07-23T15:43:07;15.27;;;7.57;;
55758;SDS011;41678;52.126;20.664;2022-07-23T15:48:27;11.75;;;7.63;;
55758;SDS011;41678;52.126;20.664;2022-07-23T15:53:47;12.85;;;6.95;;
55758;SDS011;41678;52.126;20.664;2022-07-23T15:59:07;13.93;;;7.82;;
55758;SDS011;41678;52.126;20.664;2022-07-23T16:04:27;13.40;;;7.90;;
55758;SDS011;41678;52.126;20.664;2022-07-23T16:09:47;15.70;;;8.02;;
55758;SDS011;41678;52.126;20.664;2022-07-23T16:15:07;11.40;;;7.80;;
55758;SDS011;41678;52.126;20.664;2022-07-23T16:20:27;11.95;;;6.93;;
55758;SDS011;41678;52.126;20.664;2022-07-23T16:25:47;12.40;;;6.83;;
55758;SDS011;41678;52.126;20.664;2022-07-23T16:31:08;12.98;;;6.97;;
55758;SDS011;41678;52.126;20.664;2022-07-23T16:36:27;13.70;;;7.50;;
55758;SDS011;41678;52.126;20.664;2022-07-23T16:41:47;14.77;;;7.10;;
55758;SDS011;41678;52.126;20.664;2022-07-23T16:47:08;12.20;;;7.40;;
55758;SDS011;41678;52.126;20.664;2022-07-23T16:52:28;9.60;;;6.45;;
55758;SDS011;41678;52.126;20.664;2022-07-23T16:57:48;13.32;;;6.85;;
55758;SDS011;41678;52.126;20.664;2022-07-23T17:03:08;10.37;;;6.80;;
55758;SDS011;41678;52.126;20.664;2022-07-23T17:08:28;12.75;;;6.90;;
55758;SDS011;41678;52.126;20.664;2022-07-23T17:13:48;13.63;;;6.32;;
55758;SDS011;41678;52.126;20.664;2022-07-23T17:19:07;15.88;;;6.50;;
55758;SDS011;41678;52.126;20.664;2022-07-23T17:24:27;12.98;;;7.45;;
55758;SDS011;41678;52.126;20.664;2022-07-23T17:29:47;11.13;;;6.77;;
55758;SDS011;41678;52.126;20.664;2022-07-23T17:35:07;12.63;;;5.68;;
55758;SDS011;41678;52.126;20.664;2022-07-23T17:40:27;10.43;;;6.50;;
55758;SDS011;41678;52.126;20.664;2022-07-23T17:45:46;13.55;;;7.53;;
55758;SDS011;41678;52.126;20.664;2022-07-23T17:51:07;12.45;;;6.60;;
55758;SDS011;41678;52.126;20.664;2022-07-23T17:56:27;12.52;;;7.68;;
55758;SDS011;41678;52.126;20.664;2022-07-23T18:01:47;10.77;;;6.60;;
55758;SDS011;41678;52.126;20.664;2022-07-23T18:07:07;10.95;;;6.30;;
55758;SDS011;41678;52.126;20.664;2022-07-23T18:12:26;13.07;;;6.45;;
55758;SDS011;41678;52.126;20.664;2022-07-23T18:17:46;13.00;;;7.07;;
55758;SDS011;41678;52.126;20.664;2022-07-23T18:23:06;9.80;;;6.67;;
55758;SDS011;41678;52.126;20.664;2022-07-23T18:28:26;11.85;;;7.30;;
55758;SDS011;41678;52.126;20.664;2022-07-23T18:33:46;12.55;;;6.45;;
55758;SDS011;41678;52.126;20.664;2022-07-23T18:39:05;14.55;;;6.60;;
55758;SDS011;41678;52.126;20.664;2022-07-23T18:44:25;12.23;;;6.53;;
55758;SDS011;41678;52.126;20.664;2022-07-23T18:49:45;14.10;;;6.63;;
55758;SDS011;41678;52.126;20.664;2022-07-23T18:55:05;11.57;;;7.05;;
55758;SDS011;41678;52.126;20.664;2022-07-23T19:00:26;13.63;;;8.87;;
55758;SDS011;41678;52.126;20.664;2022-07-23T19:05:46;14.43;;;8.18;;
55758;SDS011;41678;52.126;20.664;2022-07-23T19:11:05;14.20;;;8.30;;
55758;SDS011;41678;52.126;20.664;2022-07-23T19:16:25;18.67;;;9.88;;
55758;SDS011;41678;52.126;20.664;2022-07-23T19:21:44;13.93;;;8.35;;
55758;SDS011;41678;52.126;20.664;2022-07-23T19:27:04;21.08;;;8.00;;
55758;SDS011;41678;52.126;20.664;2022-07-23T19:32:24;12.10;;;7.88;;
55758;SDS011;41678;52.126;20.664;2022-07-23T19:37:44;15.00;;;7.53;;
55758;SDS011;41678;52.126;20.664;2022-07-23T19:43:04;14.85;;;7.47;;
55758;SDS011;41678;52.126;20.664;2022-07-23T19:48:24;16.55;;;8.15;;
55758;SDS011;41678;52.126;20.664;2022-07-23T19:53:43;12.60;;;8.23;;
55758;SDS011;41678;52.126;20.664;2022-07-23T19:59:03;11.45;;;7.95;;
55758;SDS011;41678;52.126;20.664;2022-07-23T20:04:23;16.70;;;7.90;;
55758;SDS011;41678;52.126;20.664;2022-07-23T20:09:43;15.57;;;8.10;;
55758;SDS011;41678;52.126;20.664;2022-07-23T20:15:04;12.27;;;8.63;;
55758;SDS011;41678;52.126;20.664;2022-07-23T20:20:25;20.08;;;9.25;;
55758;SDS011;41678;52.126;20.664;2022-07-23T20:25:45;17.38;;;9.02;;
55758;SDS011;41678;52.126;20.664;2022-07-23T20:31:05;16.15;;;9.77;;
55758;SDS011;41678;52.126;20.664;2022-07-23T20:36:24;24.00;;;9.75;;
55758;SDS011;41678;52.126;20.664;2022-07-23T20:41:44;18.35;;;10.25;;
55758;SDS011;41678;52.126;20.664;2022-07-23T20:47:03;17.50;;;9.05;;
55758;SDS011;41678;52.126;20.664;2022-07-23T20:52:24;19.88;;;9.82;;
55758;SDS011;41678;52.126;20.664;2022-07-23T20:57:44;13.77;;;9.15;;
55758;SDS011;41678;52.126;20.664;2022-07-23T21:03:04;13.70;;;9.75;;
55758;SDS011;41678;52.126;20.664;2022-07-23T21:08:23;17.25;;;9.75;;
55758;SDS011;41678;52.126;20.664;2022-07-23T21:13:43;17.55;;;8.80;;
55758;SDS011;41678;52.126;20.664;2022-07-23T21:19:04;15.37;;;9.93;;
55758;SDS011;41678;52.126;20.664;2022-07-23T21:24:24;18.88;;;9.77;;
55758;SDS011;41678;52.126;20.664;2022-07-23T21:29:43;16.23;;;10.07;;
55758;SDS011;41678;52.126;20.664;2022-07-23T21:35:04;18.23;;;9.75;;
55758;SDS011;41678;52.126;20.664;2022-07-23T21:40:25;18.95;;;10.52;;
55758;SDS011;41678;52.126;20.664;2022-07-23T21:45:45;19.83;;;10.10;;
55758;SDS011;41678;52.126;20.664;2022-07-23T21:51:05;18.90;;;9.98;;
55758;SDS011;41678;52.126;20.664;2022-07-23T21:56:25;14.43;;;9.63;;
55758;SDS011;41678;52.126;20.664;2022-07-23T22:01:44;17.10;;;10.38;;
55758;SDS011;41678;52.126;20.664;2022-07-23T22:07:04;16.83;;;10.10;;
55758;SDS011;41678;52.126;20.664;2022-07-23T22:12:24;21.85;;;11.45;;
55758;SDS011;41678;52.126;20.664;2022-07-23T22:17:44;16.17;;;10.25;;
55758;SDS011;41678;52.126;20.664;2022-07-23T22:23:04;18.33;;;12.87;;
55758;SDS011;41678;52.126;20.664;2022-07-23T22:28:25;20.40;;;11.20;;
55758;SDS011;41678;52.126;20.664;2022-07-23T22:33:44;22.67;;;12.15;;
55758;SDS011;41678;52.126;20.664;2022-07-23T22:39:04;15.65;;;11.40;;
55758;SDS011;41678;52.126;20.664;2022-07-23T22:44:25;18.47;;;12.37;;
55758;SDS011;41678;52.126;20.664;2022-07-23T22:49:44;21.63;;;11.95;;
55758;SDS011;41678;52.126;20.664;2022-07-23T22:55:05;23.52;;;12.80;;
55758;SDS011;41678;52.126;20.664;2022-07-23T23:00:25;17.07;;;12.30;;
55758;SDS011;41678;52.126;20.664;2022-07-23T23:05:44;24.42;;;12.15;;
55758;SDS011;41678;52.126;20.664;2022-07-23T23:11:04;25.35;;;13.07;;
55758;SDS011;41678;52.126;20.664;2022-07-23T23:16:24;17.63;;;11.82;;
55758;SDS011;41678;52.126;20.664;2022-07-23T23:21:44;22.02;;;13.40;;
55758;SDS011;41678;52.126;20.664;2022-07-23T23:27:04;19.63;;;12.45;;
55758;SDS011;41678;52.126;20.664;2022-07-23T23:32:25;28.27;;;13.00;;
55758;SDS011;41678;52.126;20.664;2022-07-23T23:37:44;18.30;;;12.15;;
55758;SDS011;41678;52.126;20.664;2022-07-23T23:43:04;23.20;;;14.13;;
55758;SDS011;41678;52.126;20.664;2022-07-23T23:48:24;21.85;;;14.07;;
55758;SDS011;41678;52.126;20.664;2022-07-23T23:53:44;21.40;;;12.95;;
55758;SDS011;41678;52.126;20.664;2022-07-23T23:59:04;22.35;;;13.70;;
